Terminal Aerodrome Forecast
Issued by NWS Houston/Galveston, TX

Home | Current Version | Previous Version | Text Only | Print | Product List | Glossary On
Versions: 1 2 3 4 5 6 7 8 9 10 11 12 13 14 15 16 17 18 19 20 21 22 23 24 25 26 27 28 29 30 31 32 33 34 35 36 37 38 39 40 41 42 43 44 45 46 47 48 49 50
315
FTUS44 KHGX 020712 AAA
TAFGLS
TAF AMD
KGLS 020712Z 0207/0306 05011KT P6SM -RA VCTS BKN030CB OVC035
     FM021000 02012KT P6SM VCTS SCT008CB OVC015
     FM021600 36015G25KT P6SM VCSH BKN018 OVC050
     FM022000 01013KT P6SM BKN050
     FM030000 36014KT P6SM BKN100=

USA.gov is the U.S. government's official web portal to all federal, state and local government web resources and services.